createdAt,value
2018-08-25T00:00:26.500Z,16.99
2018-08-25T00:01:26.420Z,17.09
2018-08-25T00:04:08.279Z,16.84
2018-08-25T00:05:08.169Z,16.96
2018-08-25T00:06:08.085Z,17.00
2018-08-25T00:07:08.002Z,16.96
2018-08-25T00:08:08.091Z,17.03
2018-08-25T00:09:07.853Z,16.98
2018-08-25T00:10:08.815Z,17.02
2018-08-25T00:11:08.356Z,17.00
2018-08-25T00:12:07.607Z,16.88
2018-08-25T00:13:07.535Z,16.84
2018-08-25T00:14:07.462Z,16.88
2018-08-25T00:15:07.389Z,16.91
2018-08-25T00:16:07.296Z,16.96
2018-08-25T00:17:07.217Z,16.87
2018-08-25T00:18:07.121Z,16.85
2018-08-25T00:19:07.070Z,16.87
2018-08-25T00:20:06.963Z,16.91
2018-08-25T00:21:06.900Z,16.84
2018-08-25T00:22:06.805Z,16.84
2018-08-25T00:23:06.734Z,16.92
2018-08-25T00:24:06.688Z,16.85
2018-08-25T00:25:06.595Z,16.85
2018-08-25T00:26:06.491Z,16.81
2018-08-25T00:27:06.423Z,16.85
2018-08-25T00:28:06.339Z,16.85
2018-08-25T00:29:06.256Z,16.88
2018-08-25T00:30:06.238Z,16.87
2018-08-25T00:31:06.102Z,16.95
2018-08-25T00:32:06.007Z,16.87
2018-08-25T00:33:05.938Z,16.98
2018-08-25T00:34:05.850Z,16.96
2018-08-25T00:35:05.777Z,16.90
2018-08-25T00:36:05.712Z,16.81
2018-08-25T00:37:05.621Z,16.92
2018-08-25T00:38:05.535Z,16.85
2018-08-25T00:39:05.462Z,16.88
2018-08-25T00:40:05.373Z,16.88
2018-08-25T00:41:05.317Z,16.85
2018-08-25T00:42:05.215Z,16.96
2018-08-25T00:43:05.142Z,16.90
2018-08-25T00:44:05.066Z,16.88
2018-08-25T00:45:05.001Z,16.90
2018-08-25T00:46:04.916Z,16.91
2018-08-25T00:48:46.750Z,16.85
2018-08-25T00:49:46.672Z,16.91
2018-08-25T00:50:46.595Z,16.82
2018-08-25T00:51:46.540Z,16.85
2018-08-25T00:52:46.439Z,16.85
2018-08-25T00:53:46.358Z,16.82
2018-08-25T00:54:46.273Z,16.82
2018-08-25T00:55:46.208Z,16.90
2018-08-25T00:56:46.130Z,16.91
2018-08-25T00:59:28.280Z,16.84
2018-08-25T01:00:28.178Z,16.80
2018-08-25T01:01:28.123Z,16.81
2018-08-25T01:04:10.255Z,16.77
2018-08-25T01:05:10.194Z,16.81
2018-08-25T01:06:10.094Z,16.85
2018-08-25T01:07:10.135Z,16.81
2018-08-25T01:08:09.939Z,16.81
2018-08-25T01:09:09.861Z,16.82
2018-08-25T01:10:09.781Z,16.75
2018-08-25T01:11:09.700Z,16.75
2018-08-25T01:12:09.634Z,16.69
2018-08-25T01:13:09.543Z,16.67
2018-08-25T01:14:09.454Z,16.81
2018-08-25T01:15:09.384Z,16.81
2018-08-25T01:16:09.306Z,16.85
2018-08-25T01:17:10.255Z,16.78
2018-08-25T01:18:09.140Z,16.78
2018-08-25T01:19:09.067Z,16.82
2018-08-25T01:20:08.989Z,16.81
2018-08-25T01:21:08.906Z,16.72
2018-08-25T01:22:08.839Z,16.70
2018-08-25T01:23:08.770Z,16.81
2018-08-25T01:24:08.658Z,16.80
2018-08-25T01:25:08.601Z,16.77
2018-08-25T01:26:08.497Z,16.78
2018-08-25T01:27:08.444Z,16.81
2018-08-25T01:28:08.362Z,16.80
2018-08-25T01:29:08.280Z,16.77
2018-08-25T01:30:08.180Z,16.82
2018-08-25T01:31:08.106Z,16.87
2018-08-25T01:32:08.026Z,16.85
2018-08-25T01:33:07.972Z,16.90
2018-08-25T01:34:07.865Z,16.96
2018-08-25T01:35:07.790Z,16.85
2018-08-25T01:36:07.712Z,16.92
2018-08-25T01:37:07.634Z,16.81
2018-08-25T01:38:07.571Z,16.88
2018-08-25T01:39:07.472Z,16.91
2018-08-25T01:40:07.388Z,16.87
2018-08-25T01:42:49.295Z,16.90
2018-08-25T01:43:49.210Z,16.96
2018-08-25T01:44:49.107Z,16.88
2018-08-25T01:45:49.047Z,16.87
2018-08-25T01:46:48.945Z,16.81
2018-08-25T01:47:48.871Z,16.84
2018-08-25T01:48:48.806Z,16.81
2018-08-25T01:49:48.704Z,16.80
2018-08-25T01:50:48.631Z,16.81
2018-08-25T01:51:48.564Z,16.87
2018-08-25T01:52:48.472Z,16.91
2018-08-25T01:53:48.429Z,16.96
2018-08-25T01:54:48.309Z,16.81
2018-08-25T01:55:48.232Z,16.80
2018-08-25T01:56:48.150Z,16.92
2018-08-25T01:57:48.075Z,16.84
2018-08-25T01:58:47.999Z,16.85
2018-08-25T01:59:47.944Z,16.87
2018-08-25T02:00:47.839Z,16.81
2018-08-25T02:03:29.801Z,16.84
2018-08-25T02:04:29.719Z,16.85
2018-08-25T02:05:29.612Z,16.84
2018-08-25T02:08:11.777Z,16.81
2018-08-25T02:09:11.719Z,16.82
2018-08-25T02:10:11.772Z,16.92
2018-08-25T02:11:11.549Z,16.85
2018-08-25T02:12:11.451Z,16.85
2018-08-25T02:13:11.376Z,16.82
2018-08-25T02:14:11.308Z,16.88
2018-08-25T02:15:11.218Z,16.88
2018-08-25T02:16:11.150Z,16.95
2018-08-25T02:17:11.061Z,16.81
2018-08-25T02:18:10.980Z,16.73
2018-08-25T02:19:10.920Z,16.66
2018-08-25T02:20:10.833Z,16.80
2018-08-25T02:21:10.755Z,16.80
2018-08-25T02:22:10.651Z,16.78
2018-08-25T02:24:52.783Z,16.77
2018-08-25T02:25:52.728Z,16.70
2018-08-25T02:26:52.615Z,16.65
2018-08-25T02:27:52.550Z,16.63
2018-08-25T02:28:52.456Z,16.69
2018-08-25T02:29:52.386Z,16.62
2018-08-25T02:30:52.316Z,16.54
2018-08-25T02:31:52.219Z,16.52
2018-08-25T02:32:52.149Z,16.50
2018-08-25T02:33:52.066Z,16.51
2018-08-25T02:34:51.979Z,16.51
2018-08-25T02:35:51.928Z,16.51
2018-08-25T02:36:51.822Z,16.45
2018-08-25T02:37:51.742Z,16.48
2018-08-25T02:38:51.717Z,16.55
2018-08-25T02:39:51.593Z,16.44
2018-08-25T02:40:51.528Z,16.48
2018-08-25T02:43:33.783Z,16.55
2018-08-25T02:44:33.708Z,16.60
2018-08-25T02:53:14.432Z,16.29
2018-08-25T02:54:14.340Z,16.23
2018-08-25T02:55:14.253Z,16.16
2018-08-25T02:56:14.170Z,16.23
2018-08-25T02:57:14.098Z,16.08
2018-08-25T02:58:14.171Z,16.07
2018-08-25T02:59:13.931Z,16.11
2018-08-25T03:00:13.853Z,15.98
2018-08-25T03:01:13.791Z,15.78
2018-08-25T03:02:13.696Z,15.66
2018-08-25T03:03:13.615Z,15.60
2018-08-25T03:04:13.554Z,15.46
2018-08-25T03:05:13.451Z,15.23
2018-08-25T03:06:13.389Z,15.31
2018-08-25T03:07:13.314Z,15.28
2018-08-25T03:08:13.206Z,15.28
2018-08-25T03:09:13.148Z,15.31
2018-08-25T03:10:13.048Z,15.25
2018-08-25T03:11:12.974Z,15.25
2018-08-25T03:12:12.911Z,15.27
2018-08-25T03:13:12.826Z,15.11
2018-08-25T03:14:12.759Z,15.13
2018-08-25T03:15:12.653Z,15.16
2018-08-25T03:16:12.570Z,15.22
2018-08-25T03:17:12.509Z,15.28
2018-08-25T03:18:12.412Z,15.30
2018-08-25T03:19:12.335Z,15.23
2018-08-25T03:20:12.276Z,15.30
2018-08-25T03:21:12.248Z,15.25
2018-08-25T03:22:12.095Z,15.19
2018-08-25T03:23:12.010Z,15.22
2018-08-25T03:24:11.926Z,15.18
2018-08-25T03:25:11.875Z,15.05
2018-08-25T03:26:11.768Z,15.11
2018-08-25T03:27:11.692Z,14.93
2018-08-25T03:28:11.626Z,15.00
2018-08-25T03:29:11.536Z,14.79
2018-08-25T03:30:11.470Z,14.75
2018-08-25T03:31:11.375Z,14.75
2018-08-25T03:32:11.286Z,14.64
2018-08-25T03:33:11.222Z,14.36
2018-08-25T03:34:11.231Z,14.06
2018-08-25T03:35:11.082Z,13.94
2018-08-25T03:36:10.974Z,13.98
2018-08-25T03:37:11.054Z,13.86
2018-08-25T03:38:10.852Z,13.72
2018-08-25T03:39:10.741Z,13.73
2018-08-25T03:40:10.671Z,13.63
2018-08-25T03:41:10.572Z,13.55
2018-08-25T03:42:10.490Z,13.69
2018-08-25T03:43:10.413Z,13.43
2018-08-25T03:44:10.323Z,13.54
2018-08-25T03:45:10.267Z,13.51
2018-08-25T03:46:10.160Z,13.46
2018-08-25T03:48:52.311Z,13.53
2018-08-25T03:49:52.230Z,13.47
2018-08-25T03:50:52.151Z,13.51
2018-08-25T03:51:52.066Z,13.51
2018-08-25T03:52:51.987Z,13.51
2018-08-25T03:53:51.931Z,13.54
2018-08-25T03:54:51.811Z,13.53
2018-08-25T03:55:51.752Z,13.47
2018-08-25T03:56:51.662Z,13.63
2018-08-25T03:57:51.579Z,13.55
2018-08-25T03:58:51.526Z,13.59
2018-08-25T04:01:33.843Z,13.59
2018-08-25T04:04:15.829Z,13.65
2018-08-25T04:05:15.767Z,13.46
2018-08-25T04:06:15.664Z,13.51
2018-08-25T04:07:15.572Z,13.69
2018-08-25T04:08:15.478Z,13.73
2018-08-25T04:09:15.409Z,13.76
2018-08-25T04:10:15.333Z,13.76
2018-08-25T04:11:15.255Z,13.68
2018-08-25T04:12:15.166Z,13.65
2018-08-25T04:13:15.079Z,13.65
2018-08-25T04:14:15.009Z,13.62
2018-08-25T04:15:14.950Z,13.66
2018-08-25T04:16:14.893Z,13.65
2018-08-25T04:17:14.789Z,13.72
2018-08-25T04:18:14.682Z,13.57
2018-08-25T04:19:14.682Z,13.63
2018-08-25T04:20:14.540Z,13.72
2018-08-25T04:21:14.446Z,13.62
2018-08-25T04:22:14.519Z,13.76
2018-08-25T04:24:56.313Z,13.63
2018-08-25T04:25:56.419Z,13.76
2018-08-25T04:28:20.807Z,13.98
2018-08-25T04:29:20.764Z,13.93
2018-08-25T04:30:20.667Z,14.01
2018-08-25T04:31:20.577Z,13.88
2018-08-25T04:32:20.506Z,13.98
2018-08-25T04:35:02.311Z,13.98
2018-08-25T04:36:24.237Z,13.96
2018-08-25T04:37:02.188Z,13.96
2018-08-25T04:38:02.077Z,13.90
2018-08-25T04:39:01.996Z,13.86
2018-08-25T04:40:01.916Z,13.84
2018-08-25T04:41:01.833Z,13.93
2018-08-25T04:42:01.749Z,13.79
2018-08-25T04:43:01.691Z,13.73
2018-08-25T04:44:01.585Z,13.83
2018-08-25T04:45:01.518Z,13.91
2018-08-25T04:46:01.423Z,13.88
2018-08-25T04:47:01.350Z,13.90
2018-08-25T04:48:01.290Z,13.96
2018-08-25T04:49:01.195Z,13.80
2018-08-25T04:50:01.110Z,13.88
2018-08-25T04:52:43.312Z,13.71
2018-08-25T04:53:44.254Z,13.75
2018-08-25T04:54:43.150Z,13.75
2018-08-25T04:57:25.332Z,13.80
2018-08-25T04:58:25.384Z,13.81
2018-08-25T04:59:25.154Z,13.83
2018-08-25T05:00:25.081Z,13.81
2018-08-25T05:01:24.991Z,13.81
2018-08-25T05:02:24.913Z,13.88
2018-08-25T05:03:24.852Z,13.69
2018-08-25T05:04:24.760Z,13.76
2018-08-25T05:25:49.701Z,13.79
2018-08-25T05:26:47.283Z,13.79
2018-08-25T05:27:47.205Z,13.75
2018-08-25T05:28:47.130Z,13.76
2018-08-25T05:29:47.061Z,13.72
2018-08-25T05:30:46.985Z,13.72
2018-08-25T05:31:46.876Z,13.73
2018-08-25T05:32:46.803Z,13.88
2018-08-25T05:33:46.730Z,13.91
2018-08-25T05:34:46.645Z,14.11
2018-08-25T05:35:46.591Z,14.20
2018-08-25T05:36:46.497Z,14.13
2018-08-25T05:37:46.414Z,14.13
2018-08-25T05:38:46.328Z,14.02
2018-08-25T05:39:46.237Z,13.96
2018-08-25T05:40:46.180Z,14.02
2018-08-25T05:41:46.076Z,13.94
2018-08-25T05:44:28.324Z,13.91
2018-08-25T05:45:49.244Z,13.83
2018-08-25T05:46:28.156Z,13.87
2018-08-25T05:47:28.196Z,13.79
2018-08-25T05:48:28.020Z,13.84
2018-08-25T05:49:27.931Z,14.08
2018-08-25T05:50:27.850Z,14.06
2018-08-25T05:51:27.787Z,14.05
2018-08-25T05:52:27.703Z,14.06
2018-08-25T05:53:27.609Z,14.01
2018-08-25T05:54:27.521Z,14.11
2018-08-25T05:55:27.478Z,14.09
2018-08-25T05:56:27.400Z,14.12
2018-08-25T05:59:09.322Z,14.16
2018-08-25T06:00:09.259Z,14.27
2018-08-25T06:01:09.161Z,14.24
2018-08-25T06:02:09.121Z,14.24
2018-08-25T06:03:09.007Z,14.39
2018-08-25T06:04:08.931Z,14.46
2018-08-25T06:05:08.853Z,14.61
2018-08-25T06:06:08.772Z,14.53
2018-08-25T06:07:08.707Z,14.66
2018-08-25T06:08:08.616Z,14.63
2018-08-25T06:09:08.527Z,14.63
2018-08-25T06:11:50.837Z,14.56
2018-08-25T06:12:50.781Z,14.71
2018-08-25T06:13:50.675Z,14.64
2018-08-25T06:14:50.604Z,14.67
2018-08-25T06:15:50.512Z,14.67
2018-08-25T06:40:12.104Z,14.67
2018-08-25T06:41:12.010Z,14.64
2018-08-25T06:42:11.917Z,14.75
2018-08-25T06:43:11.930Z,14.78
2018-08-25T06:44:11.794Z,14.74
2018-08-25T06:45:11.675Z,14.82
2018-08-25T06:46:11.602Z,14.72
2018-08-25T06:47:11.524Z,14.72
2018-08-25T06:48:11.466Z,14.87
2018-08-25T06:49:12.382Z,15.03
2018-08-25T06:50:11.277Z,15.22
2018-08-25T06:51:11.206Z,15.20
2018-08-25T06:52:11.111Z,15.43
2018-08-25T06:54:53.364Z,15.03
2018-08-25T06:55:53.273Z,15.05
2018-08-25T06:56:53.184Z,15.07
2018-08-25T06:57:53.112Z,14.98
2018-08-25T06:58:53.028Z,15.13
2018-08-25T06:59:52.971Z,15.11
2018-08-25T07:00:52.884Z,15.05
2018-08-25T07:03:34.846Z,15.11
2018-08-25T07:04:34.792Z,15.22
2018-08-25T07:05:34.694Z,15.01
2018-08-25T07:06:34.617Z,14.95
2018-08-25T07:07:34.532Z,15.01
2018-08-25T07:08:34.444Z,15.12
2018-08-25T07:09:34.400Z,15.23
2018-08-25T07:12:16.361Z,15.18
2018-08-25T07:14:58.378Z,15.07
2018-08-25T07:15:58.278Z,15.01
2018-08-25T07:16:58.233Z,14.94
2018-08-25T07:17:58.219Z,15.07
2018-08-25T07:18:58.073Z,15.09
2018-08-25T07:19:58.032Z,14.91
2018-08-25T07:20:57.905Z,14.80
2018-08-25T07:21:57.868Z,14.75
2018-08-25T07:22:57.987Z,14.74
2018-08-25T07:23:57.748Z,14.74
2018-08-25T07:24:57.556Z,14.63
2018-08-25T07:25:57.664Z,14.69
2018-08-25T07:26:57.398Z,14.60
2018-08-25T07:27:57.358Z,14.64
2018-08-25T07:28:57.240Z,14.71
2018-08-25T07:29:57.261Z,14.67
2018-08-25T07:30:57.088Z,14.67
2018-08-25T07:31:57.142Z,14.71
2018-08-25T07:32:56.953Z,14.66
2018-08-25T07:33:56.886Z,14.66
2018-08-25T07:34:56.768Z,14.75
2018-08-25T07:35:56.739Z,14.91
2018-08-25T07:36:56.602Z,15.00
2018-08-25T07:37:56.515Z,15.05
2018-08-25T07:38:56.481Z,15.15
2018-08-25T07:39:56.354Z,15.34
2018-08-25T07:40:56.278Z,15.28
2018-08-25T07:41:56.223Z,15.43
2018-08-25T07:42:56.139Z,16.34
2018-08-25T07:43:56.036Z,17.42
2018-08-25T07:44:55.959Z,17.15
2018-08-25T07:45:55.927Z,16.73
2018-08-25T07:46:55.820Z,16.29
2018-08-25T07:47:55.752Z,16.11
2018-08-25T07:48:55.634Z,16.73
2018-08-25T07:49:55.660Z,16.77
2018-08-25T07:50:55.579Z,16.42
2018-08-25T07:51:55.512Z,16.69
2018-08-25T07:52:55.327Z,17.09
2018-08-25T07:53:55.274Z,17.53
2018-08-25T07:54:55.191Z,18.01
2018-08-25T07:55:55.286Z,17.30
2018-08-25T07:56:55.072Z,16.77
2018-08-25T07:57:55.447Z,16.90
2018-08-25T07:58:54.861Z,17.96
2018-08-25T07:59:54.795Z,19.13
2018-08-25T08:00:55.060Z,18.21
2018-08-25T08:01:54.994Z,18.50
2018-08-25T08:02:54.522Z,17.89
2018-08-25T08:03:54.521Z,18.10
2018-08-25T08:04:54.454Z,17.81
2018-08-25T08:05:54.590Z,18.01
2018-08-25T08:06:54.217Z,17.58
2018-08-25T08:07:54.669Z,17.53
2018-08-25T08:08:54.047Z,16.91
2018-08-25T08:09:54.065Z,16.72
2018-08-25T08:10:53.915Z,16.92
2018-08-25T08:11:53.910Z,16.90
2018-08-25T08:12:53.764Z,16.85
2018-08-25T08:13:53.787Z,17.03
2018-08-25T08:14:53.567Z,17.05
2018-08-25T08:15:54.503Z,17.03
2018-08-25T08:16:53.428Z,17.09
2018-08-25T08:17:53.413Z,16.95
2018-08-25T08:18:53.259Z,16.95
2018-08-25T08:19:53.289Z,16.87
2018-08-25T08:20:53.091Z,16.72
2018-08-25T08:21:53.122Z,16.44
2018-08-25T08:22:53.009Z,16.37
2018-08-25T08:23:52.922Z,16.47
2018-08-25T08:24:52.803Z,16.62
2018-08-25T08:25:52.830Z,16.72
2018-08-25T08:26:52.634Z,16.82
2018-08-25T08:27:52.637Z,16.96
2018-08-25T08:28:52.589Z,17.30
2018-08-25T08:29:52.449Z,17.43
2018-08-25T08:30:52.305Z,17.91
2018-08-25T08:31:52.367Z,19.17
2018-08-25T08:32:52.223Z,19.06
2018-08-25T08:33:52.211Z,19.95
2018-08-25T08:34:52.015Z,20.22
2018-08-25T08:35:51.984Z,20.38
2018-08-25T08:36:51.858Z,20.38
2018-08-25T08:39:34.033Z,19.31
2018-08-25T08:40:33.872Z,18.99
2018-08-25T08:41:33.734Z,19.12
2018-08-25T08:42:33.687Z,18.87
2018-08-25T08:43:33.572Z,18.74
2018-08-25T08:44:33.607Z,18.83
2018-08-25T08:45:33.503Z,19.49
2018-08-25T08:46:33.410Z,20.19
2018-08-25T08:47:33.302Z,20.64
2018-08-25T08:48:33.211Z,20.07
2018-08-25T08:49:33.129Z,19.12
2018-08-25T08:50:34.142Z,18.51
2018-08-25T08:51:32.996Z,18.44
2018-08-25T08:52:32.935Z,18.38
2018-08-25T08:53:32.778Z,17.68
2018-08-25T08:54:32.753Z,18.93
2018-08-25T08:55:32.638Z,19.61
2018-08-25T08:56:32.661Z,19.82
2018-08-25T08:57:32.483Z,19.42
2018-08-25T08:58:32.465Z,19.13
2018-08-25T08:59:32.323Z,18.31
2018-08-25T09:00:32.295Z,18.16
2018-08-25T09:01:32.168Z,18.64
2018-08-25T09:02:32.184Z,19.46
2018-08-25T09:03:32.103Z,19.28
2018-08-25T09:04:31.985Z,18.97
2018-08-25T09:05:31.882Z,18.53
2018-08-25T09:06:31.888Z,18.68
2018-08-25T09:07:31.708Z,18.66
2018-08-25T09:08:31.709Z,19.42
2018-08-25T09:09:31.545Z,20.61
2018-08-25T09:10:31.509Z,20.79
2018-08-25T09:11:31.466Z,22.09
2018-08-25T09:12:31.455Z,22.35
2018-08-25T09:13:31.234Z,21.28
2018-08-25T09:14:31.243Z,20.60
2018-08-25T09:15:31.091Z,19.61
2018-08-25T09:16:31.040Z,19.82
2018-08-25T09:17:31.104Z,20.61
2018-08-25T09:18:30.963Z,20.85
2018-08-25T09:19:30.942Z,19.85
2018-08-25T09:20:30.770Z,19.39
2018-08-25T09:21:30.619Z,18.83
2018-08-25T09:22:30.709Z,18.31
2018-08-25T09:23:30.464Z,18.21
2018-08-25T09:24:30.711Z,18.21
2018-08-25T09:25:30.328Z,18.34
2018-08-25T09:26:30.323Z,18.41
2018-08-25T09:27:30.268Z,18.38
2018-08-25T09:28:30.206Z,18.36
2018-08-25T09:29:30.013Z,19.23
2018-08-25T09:30:30.015Z,19.64
2018-08-25T09:31:29.972Z,19.20
2018-08-25T09:32:29.839Z,19.15
2018-08-25T09:33:29.698Z,18.78
2018-08-25T09:34:29.747Z,18.68
2018-08-25T09:35:29.545Z,19.46
2018-08-25T09:36:29.726Z,19.27
2018-08-25T09:37:29.412Z,19.09
2018-08-25T09:38:29.337Z,18.68
2018-08-25T09:39:29.234Z,19.72
2018-08-25T09:40:29.258Z,19.57
2018-08-25T09:41:29.082Z,20.56
2018-08-25T09:42:30.182Z,21.58
2018-08-25T09:43:28.955Z,21.53
2018-08-25T09:44:28.917Z,21.77
2018-08-25T09:45:28.795Z,22.44
2018-08-25T09:46:28.800Z,22.54
2018-08-25T09:47:28.617Z,21.64
2018-08-25T09:48:29.647Z,22.29
2018-08-25T09:49:28.471Z,22.88
2018-08-25T09:50:28.505Z,23.35
2018-08-25T09:51:28.317Z,23.34
2018-08-25T09:52:28.316Z,22.48
2018-08-25T09:53:28.221Z,22.86
2018-08-25T09:54:28.121Z,21.99
2018-08-25T09:55:28.026Z,20.91
2018-08-25T09:56:28.047Z,20.93
2018-08-25T09:57:27.870Z,22.27
2018-08-25T09:58:27.875Z,22.96
2018-08-25T09:59:27.894Z,22.01
2018-08-25T10:00:27.784Z,21.22
2018-08-25T10:01:27.585Z,20.78
2018-08-25T10:02:27.612Z,20.37
2018-08-25T10:03:27.434Z,20.87
2018-08-25T10:04:27.510Z,21.79
2018-08-25T10:05:27.296Z,21.94
2018-08-25T10:06:27.280Z,22.24
2018-08-25T10:07:27.136Z,22.89
2018-08-25T10:08:27.093Z,23.25
2018-08-25T10:09:27.019Z,22.52
2018-08-25T10:10:26.998Z,21.53
2018-08-25T10:11:26.852Z,21.15
2018-08-25T10:12:26.827Z,20.82
2018-08-25T10:13:26.707Z,20.54
2018-08-25T10:14:26.747Z,21.52
2018-08-25T10:15:26.560Z,22.78
2018-08-25T10:16:26.637Z,23.67
2018-08-25T10:17:26.405Z,23.82
2018-08-25T10:18:26.438Z,22.42
2018-08-25T10:19:26.442Z,22.27
2018-08-25T10:20:26.251Z,22.31
2018-08-25T10:21:26.098Z,21.19
2018-08-25T10:22:26.173Z,21.63
2018-08-25T10:23:26.065Z,22.21
2018-08-25T10:24:25.963Z,21.48
2018-08-25T10:25:25.865Z,21.81
2018-08-25T10:26:25.776Z,21.73
2018-08-25T10:27:25.684Z,22.57
2018-08-25T10:28:25.596Z,22.64
2018-08-25T10:29:25.526Z,23.49
2018-08-25T10:30:25.474Z,24.45
2018-08-25T10:31:25.368Z,23.56
2018-08-25T10:32:25.321Z,23.39
2018-08-25T10:33:25.234Z,23.39
2018-08-25T10:34:25.155Z,22.33
2018-08-25T10:35:25.109Z,21.67
2018-08-25T10:36:25.039Z,21.61
2018-08-25T10:37:24.949Z,22.11
2018-08-25T10:38:24.884Z,23.00
2018-08-25T10:39:24.808Z,23.67
2018-08-25T10:40:24.759Z,22.36
2018-08-25T10:41:24.673Z,22.09
2018-08-25T10:42:24.592Z,21.70
2018-08-25T10:43:24.510Z,21.26
2018-08-25T10:44:24.453Z,21.22
2018-08-25T10:45:24.363Z,21.18
2018-08-25T10:46:24.340Z,20.54
2018-08-25T10:47:24.212Z,19.64
2018-08-25T10:48:24.161Z,20.05
2018-08-25T10:49:24.075Z,20.25
2018-08-25T10:50:24.023Z,20.56
2018-08-25T10:51:23.934Z,21.12
2018-08-25T10:52:23.855Z,20.81
2018-08-25T10:53:23.777Z,19.89
2018-08-25T10:54:23.810Z,19.62
2018-08-25T10:55:23.646Z,20.07
2018-08-25T10:56:23.663Z,21.46
2018-08-25T10:57:23.469Z,21.13
2018-08-25T10:58:23.405Z,21.52
2018-08-25T10:59:23.347Z,21.79
2018-08-25T11:00:23.354Z,22.85
2018-08-25T11:01:23.339Z,23.59
2018-08-25T11:02:23.154Z,24.30
2018-08-25T11:03:23.036Z,25.19
2018-08-25T11:04:23.118Z,24.98
2018-08-25T11:05:22.884Z,24.18
2018-08-25T11:06:22.993Z,23.09
2018-08-25T11:07:22.725Z,23.92
2018-08-25T11:08:22.764Z,23.96
2018-08-25T11:09:22.602Z,24.80
2018-08-25T11:10:22.526Z,24.90
2018-08-25T11:11:22.451Z,23.60
2018-08-25T11:12:22.532Z,23.16
2018-08-25T11:13:22.298Z,21.86
2018-08-25T11:14:22.304Z,21.43
2018-08-25T11:15:22.155Z,20.97
2018-08-25T11:16:22.154Z,20.79
2018-08-25T11:17:22.020Z,20.51
2018-08-25T11:18:22.065Z,19.65
2018-08-25T11:19:21.887Z,19.28
2018-08-25T11:20:21.846Z,19.06
2018-08-25T11:21:21.712Z,19.13
2018-08-25T11:22:22.463Z,19.35
2018-08-25T11:23:21.724Z,19.30
2018-08-25T11:26:03.454Z,21.55
2018-08-25T11:27:03.452Z,22.45
2018-08-25T11:28:03.360Z,22.64
2018-08-25T11:29:03.358Z,22.45
2018-08-25T11:30:03.164Z,22.81
2018-08-25T11:31:03.144Z,23.16
2018-08-25T11:32:03.021Z,23.38
2018-08-25T11:33:03.023Z,23.84
2018-08-25T11:34:02.849Z,23.92
2018-08-25T11:35:02.911Z,23.29
2018-08-25T11:54:25.479Z,21.61
2018-08-25T11:55:25.462Z,21.99
2018-08-25T11:56:25.317Z,22.12
2018-08-25T11:57:25.370Z,22.54
2018-08-25T11:58:25.196Z,22.89
2018-08-25T11:59:30.645Z,22.60
2018-08-25T12:00:25.008Z,23.03
2018-08-25T12:01:25.066Z,23.47
2018-08-25T12:02:27.799Z,23.38
2018-08-25T12:03:24.918Z,23.69
2018-08-25T12:04:24.771Z,22.05
2018-08-25T12:05:25.777Z,21.63
2018-08-25T12:06:24.575Z,21.79
2018-08-25T12:09:06.454Z,20.57
2018-08-25T12:10:06.465Z,20.60
2018-08-25T12:11:06.307Z,20.53
2018-08-25T12:12:06.344Z,20.64
2018-08-25T12:13:06.177Z,20.66
2018-08-25T12:14:14.230Z,20.64
2018-08-25T12:15:06.055Z,20.35
2018-08-25T12:16:06.049Z,20.25
2018-08-25T12:17:05.872Z,19.97
2018-08-25T12:18:05.867Z,19.97
2018-08-25T12:19:05.729Z,19.82
2018-08-25T12:20:05.822Z,19.72
2018-08-25T12:21:05.556Z,19.55
2018-08-25T12:22:05.590Z,19.34
2018-08-25T12:23:05.403Z,19.32
2018-08-25T12:37:28.527Z,19.61
2018-08-25T12:38:28.549Z,19.72
2018-08-25T12:39:28.394Z,19.58
2018-08-25T12:40:28.269Z,19.46
2018-08-25T12:41:28.197Z,19.30
2018-08-25T12:44:10.488Z,19.09
2018-08-25T12:45:10.555Z,19.12
2018-08-25T12:46:10.350Z,19.05
2018-08-25T12:47:10.289Z,19.24
2018-08-25T12:48:10.170Z,19.35
2018-08-25T12:50:52.021Z,19.46
2018-08-25T12:51:52.002Z,19.12
2018-08-25T12:52:51.821Z,18.76
2018-08-25T12:53:51.774Z,19.05
2018-08-25T12:54:51.650Z,19.40
2018-08-25T12:57:54.552Z,20.15
2018-08-25T12:59:57.981Z,20.60
2018-08-25T13:00:57.921Z,20.51
2018-08-25T13:01:57.853Z,20.50
2018-08-25T13:02:57.856Z,20.61
2018-08-25T13:03:57.664Z,20.82
2018-08-25T13:04:57.640Z,20.61
2018-08-25T13:05:57.528Z,20.57
2018-08-25T13:06:57.473Z,20.66
2018-08-25T13:07:57.376Z,20.69
2018-08-25T13:11:53.985Z,21.37
2018-08-25T13:12:54.069Z,21.51
2018-08-25T13:13:53.910Z,21.38
2018-08-25T13:14:53.835Z,21.26
2018-08-25T13:15:53.661Z,21.31
2018-08-25T13:16:53.636Z,20.96
2018-08-25T13:17:53.531Z,20.64
2018-08-25T13:18:53.573Z,20.60
2018-08-25T13:19:53.363Z,20.40
2018-08-25T13:20:53.334Z,20.16
2018-08-25T13:21:53.258Z,19.75
2018-08-25T13:22:53.191Z,19.67
2018-08-25T13:23:53.044Z,19.45
2018-08-25T13:24:53.083Z,19.35
2018-08-25T13:25:52.887Z,19.35
2018-08-25T13:26:52.871Z,19.23
2018-08-25T13:27:52.733Z,19.07
2018-08-25T13:28:52.812Z,18.96
2018-08-25T13:29:52.581Z,19.15
2018-08-25T13:30:52.623Z,19.12
2018-08-25T13:31:52.474Z,19.31
2018-08-25T13:32:52.447Z,19.55
2018-08-25T13:33:52.284Z,19.68
2018-08-25T13:34:52.264Z,19.43
2018-08-25T13:35:52.106Z,19.53
2018-08-25T13:36:52.035Z,19.76
2018-08-25T13:37:51.960Z,19.72
2018-08-25T13:38:52.202Z,19.95
2018-08-25T13:39:51.822Z,20.00
2018-08-25T13:40:51.800Z,19.58
2018-08-25T13:41:51.638Z,19.52
2018-08-25T13:42:51.601Z,19.25
2018-08-25T13:43:51.531Z,18.96
2018-08-25T13:44:51.511Z,18.93
2018-08-25T13:45:51.327Z,18.72
2018-08-25T13:46:51.334Z,18.56
2018-08-25T13:47:51.178Z,18.44
2018-08-25T13:48:51.197Z,18.46
2018-08-25T13:49:51.011Z,18.42
2018-08-25T13:50:51.081Z,18.29
2018-08-25T13:51:50.910Z,18.16
2018-08-25T13:52:50.841Z,18.23
2018-08-25T13:53:50.725Z,18.26
2018-08-25T13:54:50.796Z,18.44
2018-08-25T13:55:50.538Z,18.49
2018-08-25T13:56:50.666Z,18.60
2018-08-25T13:57:50.389Z,18.72
2018-08-25T13:58:51.321Z,18.69
2018-08-25T13:59:50.216Z,19.05
2018-08-25T14:00:50.553Z,19.09
2018-08-25T14:01:50.063Z,19.20
2018-08-25T14:02:49.987Z,19.12
2018-08-25T14:03:49.942Z,19.21
2018-08-25T14:04:49.839Z,19.06
2018-08-25T14:05:49.819Z,18.86
2018-08-25T14:06:49.677Z,18.74
2018-08-25T14:07:49.700Z,18.66
2018-08-25T14:08:49.552Z,18.54
2018-08-25T14:09:49.467Z,18.59
2018-08-25T14:10:49.657Z,18.54
2018-08-25T14:11:49.275Z,18.56
2018-08-25T14:12:49.300Z,18.56
2018-08-25T14:13:49.117Z,18.53
2018-08-25T14:14:49.068Z,18.64
2018-08-25T14:15:48.977Z,18.64
2018-08-25T14:16:49.079Z,18.71
2018-08-25T14:17:48.815Z,18.79
2018-08-25T14:18:48.814Z,18.87
2018-08-25T14:19:48.670Z,19.13
2018-08-25T14:20:48.616Z,19.16
2018-08-25T14:21:48.493Z,19.09
2018-08-25T14:22:48.530Z,18.78
2018-08-25T14:23:48.332Z,19.06
2018-08-25T14:24:48.403Z,19.09
2018-08-25T14:25:48.219Z,19.12
2018-08-25T14:26:48.153Z,19.12
2018-08-25T14:27:48.029Z,19.01
2018-08-25T14:28:48.006Z,19.01
2018-08-25T14:29:47.864Z,18.91
2018-08-25T14:30:47.925Z,18.74
2018-08-25T14:31:47.733Z,18.60
2018-08-25T14:32:47.696Z,18.93
2018-08-25T14:33:47.604Z,19.16
2018-08-25T14:34:47.502Z,19.28
2018-08-25T14:35:47.421Z,19.13
2018-08-25T14:36:47.402Z,19.30
2018-08-25T14:37:47.225Z,19.55
2018-08-25T14:38:47.217Z,19.72
2018-08-25T14:39:47.059Z,19.76
2018-08-25T14:40:47.062Z,19.72
2018-08-25T14:41:46.955Z,19.50
2018-08-25T14:42:46.931Z,19.24
2018-08-25T14:43:46.805Z,19.12
2018-08-25T14:44:46.741Z,19.17
2018-08-25T14:45:46.629Z,19.07
2018-08-25T14:48:28.504Z,18.64
2018-08-25T14:51:10.566Z,18.44
2018-08-25T14:52:12.034Z,18.32
2018-08-25T14:53:10.395Z,18.29
2018-08-25T14:54:10.344Z,18.21
2018-08-25T14:55:10.188Z,18.05
2018-08-25T14:56:10.205Z,18.02
2018-08-25T14:57:10.045Z,18.05
2018-08-25T14:58:10.073Z,17.83
2018-08-25T14:59:09.934Z,17.58
2018-08-25T15:00:09.820Z,17.51
2018-08-25T15:01:09.761Z,17.18
2018-08-25T15:02:09.683Z,17.09
2018-08-25T15:03:09.586Z,17.05
2018-08-25T15:04:09.602Z,17.00
2018-08-25T15:05:09.416Z,17.03
2018-08-25T15:06:09.408Z,16.91
2018-08-25T15:07:09.352Z,16.95
2018-08-25T15:08:09.215Z,16.85
2018-08-25T15:09:09.078Z,16.85
2018-08-25T15:10:09.178Z,16.67
2018-08-25T15:11:08.919Z,16.60
2018-08-25T15:12:09.038Z,16.55
2018-08-25T15:13:08.789Z,16.82